createdAt,value
2019-01-23T00:00:24.515Z,99.90
2019-01-23T00:02:53.838Z,99.90
2019-01-23T00:05:23.114Z,99.90
2019-01-23T00:07:52.307Z,99.90
2019-01-23T00:10:21.577Z,99.90
2019-01-23T00:12:50.834Z,99.90
2019-01-23T00:15:20.106Z,99.90
2019-01-23T00:17:50.435Z,99.90
2019-01-23T00:20:19.781Z,99.90
2019-01-23T00:22:48.970Z,99.90
2019-01-23T00:25:18.238Z,99.90
2019-01-23T00:27:47.494Z,99.90
2019-01-23T00:30:16.769Z,99.90
2019-01-23T00:32:45.951Z,99.90
2019-01-23T00:35:15.225Z,99.90
2019-01-23T00:37:44.409Z,99.90
2019-01-23T00:40:15.314Z,99.90
2019-01-23T00:42:44.570Z,99.90
2019-01-23T00:45:16.896Z,99.90
2019-01-23T00:47:46.155Z,99.90
2019-01-23T00:50:15.432Z,99.90
2019-01-23T00:52:44.613Z,99.90
2019-01-23T00:55:16.034Z,99.90
2019-01-23T00:57:45.277Z,99.90
2019-01-23T01:00:20.412Z,99.90
2019-01-23T01:02:49.665Z,99.90
2019-01-23T01:05:18.944Z,99.90
2019-01-23T01:07:48.207Z,99.90
2019-01-23T01:10:19.114Z,99.90
2019-01-23T01:12:48.374Z,99.90
2019-01-23T01:15:17.724Z,99.60
2019-01-23T01:17:46.978Z,99.50
2019-01-23T01:20:17.326Z,99.30
2019-01-23T01:22:46.582Z,99.20
2019-01-23T01:25:17.623Z,99.00
2019-01-23T01:27:46.878Z,98.90
2019-01-23T01:30:18.394Z,98.90
2019-01-23T01:32:47.654Z,98.80
2019-01-23T01:35:16.933Z,98.90
2019-01-23T01:37:46.186Z,98.80
2019-01-23T01:40:17.129Z,98.70
2019-01-23T01:42:46.378Z,98.90
2019-01-23T01:45:16.603Z,98.40
2019-01-23T01:47:45.850Z,98.30
2019-01-23T01:50:17.077Z,98.30
2019-01-23T01:52:46.325Z,98.30
2019-01-23T01:55:15.529Z,98.40
2019-01-23T01:57:44.851Z,98.30
2019-01-23T02:00:22.546Z,98.10
2019-01-23T02:02:51.795Z,98.00
2019-01-23T02:05:21.079Z,98.00
2019-01-23T02:07:50.331Z,97.90
2019-01-23T02:10:20.246Z,97.90
2019-01-23T02:12:49.489Z,97.90
2019-01-23T02:15:18.842Z,98.00
2019-01-23T02:17:48.952Z,98.30
2019-01-23T02:20:22.898Z,98.20
2019-01-23T02:22:52.155Z,98.30
2019-01-23T02:25:21.506Z,98.40
2019-01-23T02:27:50.746Z,98.60
2019-01-23T02:30:21.768Z,98.60
2019-01-23T02:32:51.026Z,98.70
2019-01-23T02:35:20.299Z,98.70
2019-01-23T02:37:49.570Z,98.60
2019-01-23T02:40:20.398Z,98.90
2019-01-23T02:42:49.642Z,98.90
2019-01-23T02:45:20.696Z,98.90
2019-01-23T02:47:49.950Z,99.10
2019-01-23T02:50:19.231Z,99.30
2019-01-23T02:52:48.488Z,99.40
2019-01-23T02:55:17.772Z,99.40
2019-01-23T02:57:47.022Z,99.50
2019-01-23T03:00:17.846Z,99.50
2019-01-23T03:02:47.449Z,99.40
2019-01-23T03:05:18.361Z,99.50
2019-01-23T03:07:47.621Z,99.60
2019-01-23T03:10:19.001Z,99.40
2019-01-23T03:12:48.260Z,99.70
2019-01-23T03:15:17.707Z,99.50
2019-01-23T03:17:46.985Z,99.50
2019-01-23T03:20:17.412Z,99.50
2019-01-23T03:22:46.695Z,99.40
2019-01-23T03:25:16.011Z,99.50
2019-01-23T03:27:45.290Z,99.40
2019-01-23T03:30:19.511Z,99.30
2019-01-23T03:32:48.848Z,99.10
2019-01-23T03:35:18.294Z,99.10
2019-01-23T03:37:47.573Z,99.10
2019-01-23T03:40:18.866Z,99.40
2019-01-23T03:42:48.143Z,99.30
2019-01-23T03:45:17.680Z,99.20
2019-01-23T03:47:46.945Z,99.20
2019-01-23T03:50:17.758Z,99.50
2019-01-23T03:52:47.040Z,99.90
2019-01-23T03:55:17.634Z,99.90
2019-01-23T03:57:46.847Z,99.90
2019-01-23T04:00:20.754Z,99.90
2019-01-23T04:02:51.007Z,99.90
2019-01-23T04:05:20.277Z,99.90
2019-01-23T04:07:49.559Z,99.90
2019-01-23T04:10:18.801Z,99.90
2019-01-23T04:12:48.003Z,99.90
2019-01-23T04:15:17.836Z,99.90
2019-01-23T04:17:47.117Z,99.90
2019-01-23T04:20:21.033Z,99.90
2019-01-23T04:22:50.305Z,99.90
2019-01-23T04:25:19.558Z,99.90
2019-01-23T04:27:48.866Z,99.90
2019-01-23T04:30:22.913Z,99.90
2019-01-23T04:32:52.191Z,99.90
2019-01-23T04:35:21.449Z,99.90
2019-01-23T04:37:50.734Z,99.90
2019-01-23T04:40:19.985Z,99.90
2019-01-23T04:42:49.257Z,99.90
2019-01-23T04:45:18.516Z,99.90
2019-01-23T04:47:47.794Z,99.90
2019-01-23T04:50:18.189Z,99.90
2019-01-23T04:52:54.927Z,99.90
2019-01-23T04:55:24.192Z,99.90
2019-01-23T04:57:53.464Z,99.90
2019-01-23T05:00:24.350Z,99.90
2019-01-23T05:02:53.616Z,99.90
2019-01-23T05:05:22.839Z,99.90
2019-01-23T05:07:52.103Z,99.90
2019-01-23T05:10:21.379Z,99.90
2019-01-23T05:12:50.646Z,99.90
2019-01-23T05:15:19.929Z,99.90
2019-01-23T05:17:49.997Z,99.90
2019-01-23T05:20:19.206Z,99.90
2019-01-23T05:22:48.392Z,99.90
2019-01-23T05:25:17.666Z,99.90
2019-01-23T05:27:46.927Z,99.90
2019-01-23T05:30:19.460Z,99.90
2019-01-23T05:32:48.711Z,99.90
2019-01-23T05:35:18.112Z,99.90
2019-01-23T05:37:48.431Z,99.90
2019-01-23T05:40:17.699Z,99.90
2019-01-23T05:42:46.951Z,99.90
2019-01-23T05:45:16.225Z,99.90
2019-01-23T05:47:45.416Z,99.90
2019-01-23T05:50:18.522Z,99.90
2019-01-23T05:52:48.742Z,99.90
2019-01-23T05:55:17.947Z,99.90
2019-01-23T05:57:47.195Z,99.90
2019-01-23T06:00:21.663Z,99.90
2019-01-23T06:02:50.914Z,99.90
2019-01-23T06:05:21.746Z,99.90
2019-01-23T06:07:50.999Z,99.90
2019-01-23T06:10:20.269Z,99.90
2019-01-23T06:12:49.536Z,99.90
2019-01-23T06:15:18.803Z,99.90
2019-01-23T06:17:48.061Z,99.90
2019-01-23T06:20:19.831Z,99.90
2019-01-23T06:22:49.020Z,99.90
2019-01-23T06:25:18.305Z,99.90
2019-01-23T06:27:47.567Z,99.90
2019-01-23T06:30:22.019Z,99.90
2019-01-23T06:32:51.281Z,99.90
2019-01-23T06:35:20.547Z,99.90
2019-01-23T06:37:49.864Z,99.90
2019-01-23T06:40:19.140Z,99.90
2019-01-23T06:42:48.432Z,99.90
2019-01-23T06:45:19.082Z,99.90
2019-01-23T06:47:48.874Z,99.90
2019-01-23T06:50:19.798Z,99.90
2019-01-23T06:52:49.050Z,99.90
2019-01-23T06:55:18.424Z,99.90
2019-01-23T06:57:47.686Z,99.90
2019-01-23T07:00:22.139Z,99.90
2019-01-23T07:02:51.398Z,99.90
2019-01-23T07:05:20.669Z,99.90
2019-01-23T07:07:49.853Z,99.90
2019-01-23T07:10:21.070Z,99.90
2019-01-23T07:12:50.318Z,99.90
2019-01-23T07:15:19.786Z,99.90
2019-01-23T07:17:49.086Z,99.90
2019-01-23T07:20:23.118Z,99.90
2019-01-23T07:22:52.299Z,99.90
2019-01-23T07:25:21.594Z,99.90
2019-01-23T07:27:50.844Z,99.90
2019-01-23T07:30:25.927Z,99.90
2019-01-23T07:32:55.174Z,99.90
2019-01-23T07:35:24.458Z,99.90
2019-01-23T07:37:53.712Z,99.90
2019-01-23T07:40:22.963Z,99.90
2019-01-23T07:42:52.249Z,99.90
2019-01-23T07:45:24.106Z,99.90
2019-01-23T07:47:53.391Z,99.90
2019-01-23T07:50:22.653Z,99.90
2019-01-23T07:52:51.926Z,99.90
2019-01-23T07:55:21.621Z,99.90
2019-01-23T07:57:50.903Z,99.90
2019-01-23T08:00:22.960Z,99.90
2019-01-23T08:02:52.251Z,99.90
2019-01-23T08:05:23.139Z,99.90
2019-01-23T08:07:52.487Z,99.90
2019-01-23T08:10:22.176Z,99.90
2019-01-23T08:12:52.522Z,99.90
2019-01-23T08:15:24.683Z,99.90
2019-01-23T08:17:54.034Z,99.90
2019-01-23T08:20:25.339Z,99.90
2019-01-23T08:22:54.620Z,99.90
2019-01-23T08:25:23.879Z,99.90
2019-01-23T08:27:53.170Z,99.90
2019-01-23T08:30:23.671Z,99.90
2019-01-23T08:32:53.027Z,99.90
2019-01-23T08:35:22.518Z,99.90
2019-01-23T08:37:51.798Z,99.90
2019-01-23T08:40:21.125Z,99.90
2019-01-23T08:42:50.402Z,99.90
2019-01-23T08:45:19.585Z,99.90
2019-01-23T08:47:48.861Z,99.90
2019-01-23T08:50:27.499Z,99.90
2019-01-23T08:52:56.779Z,99.90
2019-01-23T08:55:26.037Z,99.90
2019-01-23T08:57:55.301Z,99.90
2019-01-23T09:00:24.559Z,99.90
2019-01-23T09:02:53.836Z,99.90
2019-01-23T09:05:23.082Z,99.90
2019-01-23T09:07:52.366Z,99.90
2019-01-23T09:10:29.231Z,99.80
2019-01-23T09:12:58.512Z,99.80
2019-01-23T09:15:27.767Z,99.80
2019-01-23T09:17:57.110Z,99.70
2019-01-23T09:20:26.291Z,99.10
2019-01-23T09:22:55.572Z,99.00
2019-01-23T09:25:26.667Z,99.00
2019-01-23T09:27:56.018Z,98.80
2019-01-23T09:30:28.532Z,98.70
2019-01-23T09:33:06.582Z,98.60
2019-01-23T09:35:48.219Z,98.70
2019-01-23T09:38:32.606Z,98.70
2019-01-23T09:41:17.316Z,98.40
2019-01-23T09:44:04.927Z,98.40
2019-01-23T09:46:40.375Z,98.00
2019-01-23T09:49:15.478Z,97.70
2019-01-23T09:52:04.235Z,97.70
2019-01-23T09:54:33.438Z,97.60
2019-01-23T09:57:02.691Z,97.60
2019-01-23T09:59:31.975Z,97.50
2019-01-23T10:02:01.222Z,97.60
2019-01-23T10:04:30.667Z,97.20
2019-01-23T10:06:59.991Z,97.20
2019-01-23T10:09:29.270Z,97.10
2019-01-23T10:11:58.519Z,97.20
2019-01-23T10:14:27.798Z,96.20
2019-01-23T10:16:57.052Z,96.00
2019-01-23T10:19:27.407Z,95.60
2019-01-23T10:21:56.661Z,96.10
2019-01-23T10:24:25.938Z,96.00
2019-01-23T10:26:55.123Z,95.60
2019-01-23T10:29:24.409Z,94.70
2019-01-23T10:31:53.659Z,94.10
2019-01-23T10:34:22.940Z,93.80
2019-01-23T10:36:52.192Z,94.00
2019-01-23T10:39:21.470Z,93.80
2019-01-23T10:41:50.723Z,93.60
2019-01-23T10:44:20.000Z,93.50
2019-01-23T10:46:50.319Z,93.70
2019-01-23T10:49:19.596Z,93.50
2019-01-23T10:51:48.850Z,92.90
2019-01-23T10:54:18.052Z,94.00
2019-01-23T10:56:47.304Z,94.10
2019-01-23T10:59:16.583Z,93.30
2019-01-23T11:01:45.842Z,93.60
2019-01-23T11:04:15.119Z,93.70
2019-01-23T11:06:44.370Z,93.90
2019-01-23T11:09:13.675Z,93.80
2019-01-23T11:11:42.914Z,94.10
2019-01-23T11:14:12.195Z,92.80
2019-01-23T11:16:41.446Z,92.30
2019-01-23T11:19:10.727Z,92.40
2019-01-23T11:21:39.975Z,92.80
2019-01-23T11:24:09.250Z,92.10
2019-01-23T11:26:38.533Z,92.70
2019-01-23T11:29:07.710Z,93.30
2019-01-23T11:31:37.982Z,93.00
2019-01-23T11:34:07.234Z,93.00
2019-01-23T11:36:36.524Z,93.20
2019-01-23T11:39:07.913Z,92.60
2019-01-23T11:41:37.257Z,92.50
2019-01-23T11:44:06.518Z,92.90
2019-01-23T11:46:35.794Z,92.90
2019-01-23T11:49:05.051Z,92.80
2019-01-23T11:51:34.335Z,92.80
2019-01-23T11:54:03.587Z,93.20
2019-01-23T11:56:32.880Z,92.50
2019-01-23T11:59:02.131Z,92.80
2019-01-23T12:01:31.411Z,92.30
2019-01-23T12:04:00.678Z,91.70
2019-01-23T12:06:29.963Z,90.70
2019-01-23T12:08:59.215Z,91.30
2019-01-23T12:11:28.502Z,90.70
2019-01-23T12:13:57.686Z,91.80
2019-01-23T12:16:27.654Z,91.10
2019-01-23T12:18:56.913Z,92.50
2019-01-23T12:21:26.201Z,92.00
2019-01-23T12:23:58.329Z,91.30
2019-01-23T12:26:27.906Z,90.40
2019-01-23T12:28:57.156Z,91.10
2019-01-23T12:31:26.447Z,90.10
2019-01-23T12:33:55.710Z,91.00
2019-01-23T12:36:24.979Z,90.70
2019-01-23T12:38:57.180Z,90.40
2019-01-23T12:41:26.457Z,90.00
2019-01-23T12:43:55.708Z,89.90
2019-01-23T12:46:24.991Z,88.80
2019-01-23T12:48:54.242Z,88.80
2019-01-23T12:51:23.526Z,88.40
2019-01-23T12:53:52.787Z,88.30
2019-01-23T12:56:28.279Z,89.80
2019-01-23T12:58:57.186Z,90.40
2019-01-23T13:01:26.468Z,90.30
2019-01-23T13:03:55.791Z,89.70
2019-01-23T13:06:25.062Z,90.00
2019-01-23T13:08:54.240Z,90.90
2019-01-23T13:11:23.514Z,91.60
2019-01-23T13:13:52.770Z,91.30
2019-01-23T13:16:22.125Z,91.10
2019-01-23T13:18:51.381Z,90.50
2019-01-23T13:21:20.659Z,91.00
2019-01-23T13:23:49.934Z,91.30
2019-01-23T13:26:19.218Z,91.50
2019-01-23T13:28:48.499Z,91.50
2019-01-23T13:31:17.745Z,91.40
2019-01-23T13:33:46.942Z,91.80
2019-01-23T13:36:16.196Z,91.80
2019-01-23T13:38:46.580Z,92.20
2019-01-23T13:41:15.831Z,91.80
2019-01-23T13:43:45.145Z,92.20
2019-01-23T13:46:14.400Z,92.40
2019-01-23T13:48:43.717Z,92.40
2019-01-23T13:51:12.967Z,92.50
2019-01-23T13:53:42.268Z,92.70
2019-01-23T13:56:11.526Z,92.40
2019-01-23T13:58:45.732Z,91.90
2019-01-23T14:01:28.945Z,92.40
2019-01-23T14:04:02.770Z,92.60
2019-01-23T14:06:33.631Z,92.70
2019-01-23T14:09:03.013Z,92.60
2019-01-23T14:11:33.638Z,93.20
2019-01-23T14:14:02.990Z,93.00
2019-01-23T14:16:32.247Z,93.40
2019-01-23T14:19:01.572Z,93.20
2019-01-23T14:21:30.823Z,93.20
2019-01-23T14:24:00.107Z,93.40
2019-01-23T14:26:29.516Z,93.60
2019-01-23T14:28:58.791Z,93.60
2019-01-23T14:31:28.207Z,93.90
2019-01-23T14:33:57.991Z,94.40
2019-01-23T14:36:27.245Z,94.60
2019-01-23T14:38:56.530Z,94.50
2019-01-23T14:41:25.783Z,94.60
2019-01-23T14:43:55.063Z,95.00
2019-01-23T14:46:24.322Z,95.10
2019-01-23T14:48:53.610Z,95.20
2019-01-23T14:51:22.853Z,95.10
2019-01-23T14:53:52.136Z,95.10
2019-01-23T14:56:22.376Z,95.30
2019-01-23T14:58:51.658Z,95.30
2019-01-23T15:01:20.919Z,95.60
2019-01-23T15:03:50.194Z,95.60
2019-01-23T15:06:19.450Z,95.90
2019-01-23T15:08:48.767Z,95.70
2019-01-23T15:11:18.019Z,96.00
2019-01-23T15:13:47.406Z,95.60
2019-01-23T15:16:16.710Z,95.80
2019-01-23T15:18:45.981Z,96.10
2019-01-23T15:21:17.342Z,96.40
2019-01-23T15:23:47.675Z,96.30
2019-01-23T15:26:16.927Z,96.40
2019-01-23T15:28:46.223Z,96.60
2019-01-23T15:31:15.492Z,97.20
2019-01-23T15:33:44.779Z,97.70
2019-01-23T15:36:14.037Z,98.20
2019-01-23T15:38:43.314Z,98.40
2019-01-23T15:41:12.580Z,98.60
2019-01-23T15:43:41.856Z,98.70
2019-01-23T15:46:11.175Z,99.10
2019-01-23T15:48:40.471Z,99.30
2019-01-23T15:51:09.723Z,99.50
2019-01-23T15:53:39.003Z,99.70
2019-01-23T15:56:08.263Z,99.60
2019-01-23T15:58:37.539Z,99.60
2019-01-23T16:01:06.798Z,99.80
2019-01-23T16:03:36.039Z,99.90
2019-01-23T16:06:05.297Z,99.90
2019-01-23T16:08:34.563Z,99.90
2019-01-23T16:11:04.123Z,99.90
2019-01-23T16:13:33.398Z,99.90
2019-01-23T16:16:02.681Z,99.90
2019-01-23T16:18:31.932Z,99.90
2019-01-23T16:21:01.231Z,99.90
2019-01-23T16:23:30.571Z,99.90
2019-01-23T16:25:59.927Z,99.90
2019-01-23T16:28:29.176Z,99.90
2019-01-23T16:30:58.458Z,99.90
2019-01-23T16:33:27.719Z,99.90
2019-01-23T16:35:57.010Z,99.90
2019-01-23T16:38:26.276Z,99.90
2019-01-23T16:40:55.572Z,99.90
2019-01-23T16:43:24.831Z,99.90
2019-01-23T16:45:54.111Z,99.90
2019-01-23T16:48:24.134Z,99.90
2019-01-23T16:50:53.415Z,99.90
2019-01-23T16:53:23.252Z,99.90
2019-01-23T16:55:52.538Z,99.90
2019-01-23T16:58:21.803Z,99.90
2019-01-23T17:00:51.157Z,99.90
2019-01-23T17:03:20.410Z,99.90
2019-01-23T17:05:49.983Z,99.90
2019-01-23T17:08:19.316Z,99.90
2019-01-23T17:10:48.594Z,99.90
2019-01-23T17:13:17.912Z,99.90
2019-01-23T17:15:47.198Z,99.90
2019-01-23T17:18:16.529Z,99.90
2019-01-23T17:20:45.813Z,99.90
2019-01-23T17:23:15.135Z,99.90
2019-01-23T17:25:44.406Z,99.90
2019-01-23T17:28:13.806Z,99.90
2019-01-23T17:30:43.088Z,99.90
2019-01-23T17:33:12.427Z,99.90
2019-01-23T17:35:41.713Z,99.90
2019-01-23T17:38:11.030Z,99.90
2019-01-23T17:40:40.320Z,99.90
2019-01-23T17:43:10.349Z,99.90
2019-01-23T17:45:40.202Z,99.90
2019-01-23T17:48:11.194Z,99.90
2019-01-23T17:50:40.479Z,99.90
2019-01-23T17:53:09.731Z,99.90
2019-01-23T17:55:39.754Z,99.90
2019-01-23T17:58:10.475Z,99.90
2019-01-23T18:00:41.393Z,99.90
2019-01-23T18:03:10.916Z,99.90
2019-01-23T18:05:40.243Z,99.90
2019-01-23T18:08:10.600Z,99.90
2019-01-23T18:10:39.888Z,99.90
2019-01-23T18:13:09.142Z,99.90
2019-01-23T18:15:40.564Z,99.90
2019-01-23T18:18:11.962Z,99.90
2019-01-23T18:20:41.323Z,99.90
2019-01-23T18:23:10.570Z,99.90
2019-01-23T18:25:39.852Z,99.90
2019-01-23T18:28:09.104Z,99.90
2019-01-23T18:30:50.639Z,99.90
2019-01-23T18:33:40.879Z,99.90
2019-01-23T18:36:13.786Z,99.90
2019-01-23T18:38:58.249Z,99.90
2019-01-23T18:41:45.886Z,99.90
2019-01-23T18:44:33.415Z,99.90
2019-01-23T18:47:28.454Z,99.90
2019-01-23T18:50:29.630Z,99.90
2019-01-23T18:52:58.914Z,99.90
2019-01-23T18:55:28.165Z,99.90
2019-01-23T18:57:57.462Z,99.90
2019-01-23T19:00:26.726Z,99.90
2019-01-23T19:02:56.076Z,99.90
2019-01-23T19:05:25.398Z,99.90
2019-01-23T19:07:54.678Z,99.90
2019-01-23T19:10:23.935Z,99.90
2019-01-23T19:12:53.214Z,99.90
2019-01-23T19:15:22.474Z,99.90
2019-01-23T19:17:51.754Z,99.90
2019-01-23T19:20:21.582Z,99.90
2019-01-23T19:22:50.862Z,99.90
2019-01-23T19:25:26.509Z,99.90
2019-01-23T19:27:56.512Z,99.90
2019-01-23T19:30:26.010Z,99.90
2019-01-23T19:32:55.297Z,99.90
2019-01-23T19:35:24.554Z,99.90
2019-01-23T19:37:53.837Z,99.90
2019-01-23T19:40:23.108Z,99.90
2019-01-23T19:42:52.455Z,99.90
2019-01-23T19:45:21.975Z,99.90
2019-01-23T19:47:51.330Z,99.90
2019-01-23T19:50:20.665Z,99.90
2019-01-23T19:52:49.951Z,99.90
2019-01-23T19:55:19.209Z,99.70
2019-01-23T19:57:48.416Z,99.80
2019-01-23T20:00:21.588Z,99.80
2019-01-23T20:02:50.949Z,99.80
2019-01-23T20:05:23.323Z,99.80
2019-01-23T20:07:52.632Z,99.90
2019-01-23T20:10:23.835Z,99.80
2019-01-23T20:12:53.117Z,99.90
2019-01-23T20:15:22.438Z,99.90
2019-01-23T20:17:53.659Z,99.90
2019-01-23T20:20:22.922Z,99.90
2019-01-23T20:22:52.207Z,99.90
2019-01-23T20:25:24.242Z,99.90
2019-01-23T20:27:53.839Z,99.90
2019-01-23T20:30:29.273Z,99.90
2019-01-23T20:32:58.570Z,99.90
2019-01-23T20:35:27.925Z,99.90
2019-01-23T20:37:57.206Z,99.90
2019-01-23T20:40:26.466Z,99.90
2019-01-23T20:42:55.762Z,99.90
2019-01-23T20:45:24.950Z,99.90
2019-01-23T20:47:54.293Z,99.90
2019-01-23T20:50:28.543Z,99.90
2019-01-23T20:52:57.818Z,99.90
2019-01-23T20:55:27.107Z,99.90
2019-01-23T20:57:56.363Z,99.90
2019-01-23T21:00:27.989Z,99.90
2019-01-23T21:02:57.272Z,99.90
2019-01-23T21:05:26.567Z,99.90
2019-01-23T21:07:55.899Z,99.90
2019-01-23T21:10:26.896Z,99.90
2019-01-23T21:12:56.225Z,99.90
2019-01-23T21:15:29.780Z,99.90
2019-01-23T21:17:59.213Z,99.90
2019-01-23T21:20:29.427Z,99.90
2019-01-23T21:22:58.694Z,99.90
2019-01-23T21:25:27.976Z,99.90
2019-01-23T21:27:57.231Z,99.90
2019-01-23T21:30:27.652Z,99.90
2019-01-23T21:32:56.978Z,99.90
2019-01-23T21:35:26.261Z,99.90
2019-01-23T21:37:55.528Z,99.90
2019-01-23T21:40:27.265Z,99.90
2019-01-23T21:42:56.529Z,99.90
2019-01-23T21:45:25.822Z,99.90
2019-01-23T21:47:55.088Z,99.90
2019-01-23T21:50:25.222Z,99.90
2019-01-23T21:52:54.516Z,99.90
2019-01-23T21:55:24.530Z,99.90
2019-01-23T21:57:53.859Z,99.90
2019-01-23T22:00:38.142Z,99.90
2019-01-23T22:03:09.159Z,99.90
2019-01-23T22:05:38.436Z,99.90
2019-01-23T22:08:07.953Z,99.90
2019-01-23T22:10:37.222Z,99.90
2019-01-23T22:13:06.478Z,99.90
2019-01-23T22:15:35.758Z,99.90
2019-01-23T22:18:06.274Z,99.90
2019-01-23T22:20:35.554Z,99.90
2019-01-23T22:23:04.882Z,99.90
2019-01-23T22:25:34.270Z,99.90
2019-01-23T22:28:03.521Z,99.90
2019-01-23T22:30:34.146Z,99.90
2019-01-23T22:33:03.402Z,99.90
2019-01-23T22:35:32.681Z,99.90
2019-01-23T22:38:01.946Z,99.90
2019-01-23T22:40:31.227Z,99.90
2019-01-23T22:43:00.487Z,99.90
2019-01-23T22:45:29.771Z,99.90
2019-01-23T22:47:59.044Z,99.90
2019-01-23T22:50:28.324Z,99.90
2019-01-23T22:52:57.574Z,99.90
2019-01-23T22:55:26.854Z,99.90
2019-01-23T22:57:56.112Z,99.90
2019-01-23T23:00:38.142Z,99.90
2019-01-23T23:03:10.411Z,99.90
2019-01-23T23:05:39.762Z,99.90
2019-01-23T23:08:09.036Z,99.90
2019-01-23T23:10:38.307Z,99.90
2019-01-23T23:13:07.566Z,99.90
2019-01-23T23:15:36.914Z,99.90
2019-01-23T23:18:06.174Z,99.90
2019-01-23T23:20:35.466Z,99.90
2019-01-23T23:23:04.727Z,99.90
2019-01-23T23:25:33.996Z,99.90
2019-01-23T23:28:04.687Z,99.90
2019-01-23T23:30:33.946Z,99.90
2019-01-23T23:33:03.226Z,99.90
2019-01-23T23:35:32.484Z,99.90
2019-01-23T23:38:01.766Z,99.90
2019-01-23T23:40:31.024Z,99.90
2019-01-23T23:43:00.317Z,99.90
2019-01-23T23:45:29.579Z,99.90
2019-01-23T23:47:58.874Z,99.90
2019-01-23T23:50:28.142Z,99.90
2019-01-23T23:52:57.437Z,99.90
2019-01-23T23:55:26.702Z,99.90
2019-01-23T23:57:55.989Z,99.90
